Ellsberry, Ohio
Current Conditions -  °F | °C
As of 5:35 AM on Sunday 26 Oct 2014 (Local Time) from KFGX Reporting Station
Clear Clear  
Wind Chill: 52°   Ceiling: Unl
Heat Index: 52°   Visibility: 10mi
Dew Point: 42°   Wind: 5mph
Humidity: 69%   Direction: 310°NW
Pressure: 29.99"   Gusts: NA
Location:  38.6956°N, 83.7386°W
Report Text: KFGX 260935Z AUTO 31004KT 10SM CLR 11/06 A2999 RMK AO2 T01090055
Loading
Personal Weather Stations






























Interactive Weather Map
Tropical Storm Tracking
New forecast layout! Learn more

10-Day Weather Forecast

Advertisements
Track Severe Weather on mobile